sensor_id;sensor_type;location;lat;lon;timestamp;P1;durP1;ratioP1;P2;durP2;ratioP2
24407;SDS011;12542;50.924;4.516;2023-07-02T00:01:41;27.73;;;13.15;;
24407;SDS011;12542;50.924;4.516;2023-07-02T00:04:07;30.55;;;14.43;;
24407;SDS011;12542;50.924;4.516;2023-07-02T00:06:35;28.73;;;12.77;;
24407;SDS011;12542;50.924;4.516;2023-07-02T00:09:05;26.58;;;12.90;;
24407;SDS011;12542;50.924;4.516;2023-07-02T00:11:32;32.70;;;13.50;;
24407;SDS011;12542;50.924;4.516;2023-07-02T00:13:58;33.70;;;14.73;;
24407;SDS011;12542;50.924;4.516;2023-07-02T00:16:26;31.00;;;14.85;;
24407;SDS011;12542;50.924;4.516;2023-07-02T00:18:51;34.60;;;14.23;;
24407;SDS011;12542;50.924;4.516;2023-07-02T00:21:20;35.03;;;14.10;;
24407;SDS011;12542;50.924;4.516;2023-07-02T00:23:47;34.13;;;13.85;;
24407;SDS011;12542;50.924;4.516;2023-07-02T00:26:13;29.80;;;14.00;;
24407;SDS011;12542;50.924;4.516;2023-07-02T00:28:39;30.08;;;14.45;;
24407;SDS011;12542;50.924;4.516;2023-07-02T00:31:04;34.17;;;15.68;;
24407;SDS011;12542;50.924;4.516;2023-07-02T00:33:31;30.17;;;13.70;;
24407;SDS011;12542;50.924;4.516;2023-07-02T00:35:57;31.23;;;13.90;;
24407;SDS011;12542;50.924;4.516;2023-07-02T00:38:25;37.58;;;14.93;;
24407;SDS011;12542;50.924;4.516;2023-07-02T00:40:51;38.75;;;16.13;;
24407;SDS011;12542;50.924;4.516;2023-07-02T00:43:17;30.95;;;14.80;;
24407;SDS011;12542;50.924;4.516;2023-07-02T00:45:44;42.20;;;15.95;;
24407;SDS011;12542;50.924;4.516;2023-07-02T00:48:10;32.22;;;15.35;;
24407;SDS011;12542;50.924;4.516;2023-07-02T00:50:36;33.35;;;14.93;;
24407;SDS011;12542;50.924;4.516;2023-07-02T00:53:02;40.20;;;15.38;;
24407;SDS011;12542;50.924;4.516;2023-07-02T00:55:28;39.08;;;16.30;;
24407;SDS011;12542;50.924;4.516;2023-07-02T00:57:53;32.45;;;14.88;;
24407;SDS011;12542;50.924;4.516;2023-07-02T01:00:21;30.98;;;15.15;;
24407;SDS011;12542;50.924;4.516;2023-07-02T01:02:54;41.33;;;15.68;;
24407;SDS011;12542;50.924;4.516;2023-07-02T01:05:25;41.00;;;16.02;;
24407;SDS011;12542;50.924;4.516;2023-07-02T01:07:57;35.28;;;16.05;;
24407;SDS011;12542;50.924;4.516;2023-07-02T01:10:23;36.58;;;15.20;;
24407;SDS011;12542;50.924;4.516;2023-07-02T01:12:49;38.05;;;15.90;;
24407;SDS011;12542;50.924;4.516;2023-07-02T01:15:15;34.95;;;16.73;;
24407;SDS011;12542;50.924;4.516;2023-07-02T01:17:41;37.50;;;17.15;;
24407;SDS011;12542;50.924;4.516;2023-07-02T01:20:08;38.58;;;17.52;;
24407;SDS011;12542;50.924;4.516;2023-07-02T01:22:35;38.72;;;17.23;;
24407;SDS011;12542;50.924;4.516;2023-07-02T01:25:01;37.80;;;16.48;;
24407;SDS011;12542;50.924;4.516;2023-07-02T01:27:28;37.72;;;16.80;;
24407;SDS011;12542;50.924;4.516;2023-07-02T01:29:54;39.65;;;17.75;;
24407;SDS011;12542;50.924;4.516;2023-07-02T01:32:20;47.55;;;18.00;;
24407;SDS011;12542;50.924;4.516;2023-07-02T01:34:47;35.55;;;16.35;;
24407;SDS011;12542;50.924;4.516;2023-07-02T01:37:13;33.25;;;16.65;;
24407;SDS011;12542;50.924;4.516;2023-07-02T01:39:40;34.00;;;16.45;;
24407;SDS011;12542;50.924;4.516;2023-07-02T01:44:42;40.72;;;17.73;;
24407;SDS011;12542;50.924;4.516;2023-07-02T01:47:09;37.78;;;16.65;;
24407;SDS011;12542;50.924;4.516;2023-07-02T01:49:35;40.78;;;17.23;;
24407;SDS011;12542;50.924;4.516;2023-07-02T01:52:03;37.00;;;17.73;;
24407;SDS011;12542;50.924;4.516;2023-07-02T01:54:30;37.90;;;17.17;;
24407;SDS011;12542;50.924;4.516;2023-07-02T01:56:59;53.92;;;20.52;;
24407;SDS011;12542;50.924;4.516;2023-07-02T01:59:25;40.03;;;18.00;;
24407;SDS011;12542;50.924;4.516;2023-07-02T02:01:51;40.65;;;17.00;;
24407;SDS011;12542;50.924;4.516;2023-07-02T02:04:17;37.58;;;18.25;;
24407;SDS011;12542;50.924;4.516;2023-07-02T02:06:43;39.63;;;17.30;;
24407;SDS011;12542;50.924;4.516;2023-07-02T02:09:09;40.58;;;18.23;;
24407;SDS011;12542;50.924;4.516;2023-07-02T02:11:38;45.47;;;17.73;;
24407;SDS011;12542;50.924;4.516;2023-07-02T02:14:11;46.50;;;20.40;;
24407;SDS011;12542;50.924;4.516;2023-07-02T02:16:37;46.20;;;18.83;;
24407;SDS011;12542;50.924;4.516;2023-07-02T02:19:03;42.90;;;17.92;;
24407;SDS011;12542;50.924;4.516;2023-07-02T02:21:29;48.25;;;18.77;;
24407;SDS011;12542;50.924;4.516;2023-07-02T02:23:58;46.20;;;19.27;;
24407;SDS011;12542;50.924;4.516;2023-07-02T02:26:24;39.00;;;18.02;;
24407;SDS011;12542;50.924;4.516;2023-07-02T02:28:50;44.55;;;18.27;;
24407;SDS011;12542;50.924;4.516;2023-07-02T02:31:18;46.85;;;19.42;;
24407;SDS011;12542;50.924;4.516;2023-07-02T02:33:44;45.97;;;19.55;;
24407;SDS011;12542;50.924;4.516;2023-07-02T02:36:10;39.88;;;17.90;;
24407;SDS011;12542;50.924;4.516;2023-07-02T02:38:35;37.88;;;17.48;;
24407;SDS011;12542;50.924;4.516;2023-07-02T02:41:02;44.55;;;18.67;;
24407;SDS011;12542;50.924;4.516;2023-07-02T02:43:28;45.28;;;18.17;;
24407;SDS011;12542;50.924;4.516;2023-07-02T02:45:54;45.90;;;19.20;;
24407;SDS011;12542;50.924;4.516;2023-07-02T02:48:20;43.28;;;18.70;;
24407;SDS011;12542;50.924;4.516;2023-07-02T02:50:48;40.05;;;17.67;;
24407;SDS011;12542;50.924;4.516;2023-07-02T02:53:13;39.70;;;18.13;;
24407;SDS011;12542;50.924;4.516;2023-07-02T02:55:39;39.40;;;17.73;;
24407;SDS011;12542;50.924;4.516;2023-07-02T02:58:05;38.63;;;18.67;;
24407;SDS011;12542;50.924;4.516;2023-07-02T03:00:30;41.63;;;18.65;;
24407;SDS011;12542;50.924;4.516;2023-07-02T03:02:59;44.42;;;18.65;;
24407;SDS011;12542;50.924;4.516;2023-07-02T03:05:24;43.33;;;18.75;;
24407;SDS011;12542;50.924;4.516;2023-07-02T03:07:51;42.25;;;19.35;;
24407;SDS011;12542;50.924;4.516;2023-07-02T03:10:17;49.38;;;20.45;;
24407;SDS011;12542;50.924;4.516;2023-07-02T03:12:43;46.50;;;18.60;;
24407;SDS011;12542;50.924;4.516;2023-07-02T03:15:09;46.50;;;20.02;;
24407;SDS011;12542;50.924;4.516;2023-07-02T03:17:35;46.58;;;19.10;;
24407;SDS011;12542;50.924;4.516;2023-07-02T03:20:01;47.78;;;19.00;;
24407;SDS011;12542;50.924;4.516;2023-07-02T03:22:29;46.17;;;19.92;;
24407;SDS011;12542;50.924;4.516;2023-07-02T03:24:55;44.42;;;18.85;;
24407;SDS011;12542;50.924;4.516;2023-07-02T03:27:20;42.63;;;18.70;;
24407;SDS011;12542;50.924;4.516;2023-07-02T03:29:46;46.70;;;20.05;;
24407;SDS011;12542;50.924;4.516;2023-07-02T03:32:11;40.25;;;18.52;;
24407;SDS011;12542;50.924;4.516;2023-07-02T03:34:37;45.17;;;20.60;;
24407;SDS011;12542;50.924;4.516;2023-07-02T03:37:03;45.17;;;19.42;;
24407;SDS011;12542;50.924;4.516;2023-07-02T03:39:29;61.70;;;21.10;;
24407;SDS011;12542;50.924;4.516;2023-07-02T03:41:54;49.63;;;19.17;;
24407;SDS011;12542;50.924;4.516;2023-07-02T03:44:20;47.92;;;18.92;;
24407;SDS011;12542;50.924;4.516;2023-07-02T03:46:45;52.13;;;19.70;;
24407;SDS011;12542;50.924;4.516;2023-07-02T03:49:11;50.45;;;19.55;;
24407;SDS011;12542;50.924;4.516;2023-07-02T03:51:37;48.30;;;19.42;;
24407;SDS011;12542;50.924;4.516;2023-07-02T03:54:03;43.05;;;19.27;;
24407;SDS011;12542;50.924;4.516;2023-07-02T03:56:29;43.25;;;20.05;;
24407;SDS011;12542;50.924;4.516;2023-07-02T03:58:55;50.33;;;22.00;;
24407;SDS011;12542;50.924;4.516;2023-07-02T04:01:20;52.70;;;21.58;;
24407;SDS011;12542;50.924;4.516;2023-07-02T04:03:49;45.83;;;19.38;;
24407;SDS011;12542;50.924;4.516;2023-07-02T04:06:16;57.95;;;20.60;;
24407;SDS011;12542;50.924;4.516;2023-07-02T04:08:42;51.83;;;21.50;;
24407;SDS011;12542;50.924;4.516;2023-07-02T04:11:08;50.95;;;21.17;;
24407;SDS011;12542;50.924;4.516;2023-07-02T04:13:35;46.03;;;20.45;;
24407;SDS011;12542;50.924;4.516;2023-07-02T04:16:00;55.05;;;21.92;;
24407;SDS011;12542;50.924;4.516;2023-07-02T04:18:26;48.13;;;20.90;;
24407;SDS011;12542;50.924;4.516;2023-07-02T04:20:52;47.53;;;22.05;;
24407;SDS011;12542;50.924;4.516;2023-07-02T04:23:17;54.33;;;21.90;;
24407;SDS011;12542;50.924;4.516;2023-07-02T04:25:43;54.80;;;24.63;;
24407;SDS011;12542;50.924;4.516;2023-07-02T04:28:09;49.85;;;20.55;;
24407;SDS011;12542;50.924;4.516;2023-07-02T04:30:34;50.08;;;20.63;;
24407;SDS011;12542;50.924;4.516;2023-07-02T04:33:00;51.58;;;21.42;;
24407;SDS011;12542;50.924;4.516;2023-07-02T04:35:26;62.80;;;22.05;;
24407;SDS011;12542;50.924;4.516;2023-07-02T04:37:52;51.85;;;22.38;;
24407;SDS011;12542;50.924;4.516;2023-07-02T04:40:17;49.50;;;21.75;;
24407;SDS011;12542;50.924;4.516;2023-07-02T04:42:45;54.47;;;22.55;;
24407;SDS011;12542;50.924;4.516;2023-07-02T04:45:12;54.60;;;22.58;;
24407;SDS011;12542;50.924;4.516;2023-07-02T04:47:38;51.80;;;22.90;;
24407;SDS011;12542;50.924;4.516;2023-07-02T04:50:04;53.03;;;21.50;;
24407;SDS011;12542;50.924;4.516;2023-07-02T04:52:33;56.80;;;22.83;;
24407;SDS011;12542;50.924;4.516;2023-07-02T04:54:59;54.22;;;22.27;;
24407;SDS011;12542;50.924;4.516;2023-07-02T04:57:27;50.63;;;23.10;;
24407;SDS011;12542;50.924;4.516;2023-07-02T04:59:53;56.85;;;23.85;;
24407;SDS011;12542;50.924;4.516;2023-07-02T05:02:20;55.38;;;23.63;;
24407;SDS011;12542;50.924;4.516;2023-07-02T05:04:46;62.40;;;22.42;;
24407;SDS011;12542;50.924;4.516;2023-07-02T05:07:11;53.65;;;22.77;;
24407;SDS011;12542;50.924;4.516;2023-07-02T05:09:37;54.97;;;22.58;;
24407;SDS011;12542;50.924;4.516;2023-07-02T05:12:03;58.22;;;22.08;;
24407;SDS011;12542;50.924;4.516;2023-07-02T05:14:29;50.78;;;22.00;;
24407;SDS011;12542;50.924;4.516;2023-07-02T05:16:54;58.60;;;24.20;;
24407;SDS011;12542;50.924;4.516;2023-07-02T05:19:20;50.80;;;23.48;;
24407;SDS011;12542;50.924;4.516;2023-07-02T05:21:46;51.75;;;23.25;;
24407;SDS011;12542;50.924;4.516;2023-07-02T05:24:11;57.15;;;23.77;;
24407;SDS011;12542;50.924;4.516;2023-07-02T05:26:37;55.65;;;23.45;;
24407;SDS011;12542;50.924;4.516;2023-07-02T05:29:03;57.92;;;23.23;;
24407;SDS011;12542;50.924;4.516;2023-07-02T05:31:30;47.63;;;21.67;;
24407;SDS011;12542;50.924;4.516;2023-07-02T05:33:56;50.92;;;23.20;;
24407;SDS011;12542;50.924;4.516;2023-07-02T05:36:22;47.20;;;21.98;;
24407;SDS011;12542;50.924;4.516;2023-07-02T05:38:47;61.78;;;21.67;;
24407;SDS011;12542;50.924;4.516;2023-07-02T05:41:22;47.15;;;21.55;;
24407;SDS011;12542;50.924;4.516;2023-07-02T05:43:48;50.97;;;21.02;;
24407;SDS011;12542;50.924;4.516;2023-07-02T05:46:14;53.80;;;23.17;;
24407;SDS011;12542;50.924;4.516;2023-07-02T05:48:40;49.92;;;22.13;;
24407;SDS011;12542;50.924;4.516;2023-07-02T05:51:09;52.50;;;22.83;;
24407;SDS011;12542;50.924;4.516;2023-07-02T05:53:36;46.58;;;22.63;;
24407;SDS011;12542;50.924;4.516;2023-07-02T05:56:02;52.38;;;21.83;;
24407;SDS011;12542;50.924;4.516;2023-07-02T05:58:28;49.55;;;23.35;;
24407;SDS011;12542;50.924;4.516;2023-07-02T06:00:55;46.67;;;21.83;;
24407;SDS011;12542;50.924;4.516;2023-07-02T06:03:21;49.90;;;22.30;;
24407;SDS011;12542;50.924;4.516;2023-07-02T06:05:47;48.58;;;21.20;;
24407;SDS011;12542;50.924;4.516;2023-07-02T06:08:16;46.38;;;21.63;;
24407;SDS011;12542;50.924;4.516;2023-07-02T06:10:46;42.05;;;20.50;;
24407;SDS011;12542;50.924;4.516;2023-07-02T06:13:13;46.28;;;21.35;;
24407;SDS011;12542;50.924;4.516;2023-07-02T06:15:39;49.70;;;21.70;;
24407;SDS011;12542;50.924;4.516;2023-07-02T06:18:13;47.88;;;21.08;;
24407;SDS011;12542;50.924;4.516;2023-07-02T06:20:39;44.13;;;20.42;;
24407;SDS011;12542;50.924;4.516;2023-07-02T06:23:04;45.00;;;21.85;;
24407;SDS011;12542;50.924;4.516;2023-07-02T06:25:33;47.83;;;21.13;;
24407;SDS011;12542;50.924;4.516;2023-07-02T06:27:59;46.28;;;21.60;;
24407;SDS011;12542;50.924;4.516;2023-07-02T06:30:25;46.53;;;22.13;;
24407;SDS011;12542;50.924;4.516;2023-07-02T06:32:51;45.75;;;21.83;;
24407;SDS011;12542;50.924;4.516;2023-07-02T06:35:19;45.80;;;19.48;;
24407;SDS011;12542;50.924;4.516;2023-07-02T06:37:45;40.25;;;19.58;;
24407;SDS011;12542;50.924;4.516;2023-07-02T06:40:11;41.92;;;19.00;;
24407;SDS011;12542;50.924;4.516;2023-07-02T06:42:37;45.33;;;17.65;;
24407;SDS011;12542;50.924;4.516;2023-07-02T06:45:03;42.45;;;18.60;;
24407;SDS011;12542;50.924;4.516;2023-07-02T06:47:29;41.28;;;19.17;;
24407;SDS011;12542;50.924;4.516;2023-07-02T06:49:55;35.85;;;17.50;;
24407;SDS011;12542;50.924;4.516;2023-07-02T06:52:21;44.22;;;18.52;;
24407;SDS011;12542;50.924;4.516;2023-07-02T06:54:46;36.58;;;17.38;;
24407;SDS011;12542;50.924;4.516;2023-07-02T06:57:12;39.83;;;16.77;;
24407;SDS011;12542;50.924;4.516;2023-07-02T06:59:38;35.65;;;16.60;;
24407;SDS011;12542;50.924;4.516;2023-07-02T07:02:07;40.58;;;16.15;;
24407;SDS011;12542;50.924;4.516;2023-07-02T07:04:32;34.45;;;15.15;;
24407;SDS011;12542;50.924;4.516;2023-07-02T07:06:59;34.03;;;15.75;;
24407;SDS011;12542;50.924;4.516;2023-07-02T07:09:28;32.17;;;14.35;;
24407;SDS011;12542;50.924;4.516;2023-07-02T07:11:54;27.80;;;12.52;;
24407;SDS011;12542;50.924;4.516;2023-07-02T07:14:20;25.48;;;12.27;;
24407;SDS011;12542;50.924;4.516;2023-07-02T07:16:46;23.10;;;11.75;;
24407;SDS011;12542;50.924;4.516;2023-07-02T07:19:11;34.63;;;12.27;;
24407;SDS011;12542;50.924;4.516;2023-07-02T07:21:37;27.58;;;11.85;;
24407;SDS011;12542;50.924;4.516;2023-07-02T07:24:03;25.42;;;10.15;;
24407;SDS011;12542;50.924;4.516;2023-07-02T07:26:29;30.73;;;10.90;;
24407;SDS011;12542;50.924;4.516;2023-07-02T07:28:55;25.88;;;11.20;;
24407;SDS011;12542;50.924;4.516;2023-07-02T07:31:21;25.83;;;10.35;;
24407;SDS011;12542;50.924;4.516;2023-07-02T07:33:46;24.55;;;9.77;;
24407;SDS011;12542;50.924;4.516;2023-07-02T07:36:15;26.85;;;9.15;;
24407;SDS011;12542;50.924;4.516;2023-07-02T07:38:42;20.90;;;8.88;;
24407;SDS011;12542;50.924;4.516;2023-07-02T07:41:09;17.48;;;7.72;;
24407;SDS011;12542;50.924;4.516;2023-07-02T07:43:34;18.10;;;7.88;;
24407;SDS011;12542;50.924;4.516;2023-07-02T07:46:01;19.88;;;8.52;;
24407;SDS011;12542;50.924;4.516;2023-07-02T07:48:27;24.67;;;7.70;;
24407;SDS011;12542;50.924;4.516;2023-07-02T07:50:52;18.52;;;7.43;;
24407;SDS011;12542;50.924;4.516;2023-07-02T07:53:18;14.77;;;6.57;;
24407;SDS011;12542;50.924;4.516;2023-07-02T07:55:44;19.27;;;7.13;;
24407;SDS011;12542;50.924;4.516;2023-07-02T07:58:10;18.17;;;6.60;;
24407;SDS011;12542;50.924;4.516;2023-07-02T08:00:35;17.65;;;7.63;;
24407;SDS011;12542;50.924;4.516;2023-07-02T08:03:02;17.30;;;6.43;;
24407;SDS011;12542;50.924;4.516;2023-07-02T08:05:28;17.67;;;6.85;;
24407;SDS011;12542;50.924;4.516;2023-07-02T08:07:55;22.90;;;7.15;;
24407;SDS011;12542;50.924;4.516;2023-07-02T08:10:21;21.05;;;6.85;;
24407;SDS011;12542;50.924;4.516;2023-07-02T08:12:46;13.70;;;5.72;;
24407;SDS011;12542;50.924;4.516;2023-07-02T08:15:13;18.48;;;6.38;;
24407;SDS011;12542;50.924;4.516;2023-07-02T08:17:39;16.05;;;5.93;;
24407;SDS011;12542;50.924;4.516;2023-07-02T08:20:06;17.17;;;6.25;;
24407;SDS011;12542;50.924;4.516;2023-07-02T08:22:35;14.30;;;6.57;;
24407;SDS011;12542;50.924;4.516;2023-07-02T08:25:02;16.85;;;6.60;;
24407;SDS011;12542;50.924;4.516;2023-07-02T08:27:28;15.25;;;6.18;;
24407;SDS011;12542;50.924;4.516;2023-07-02T08:29:54;16.63;;;6.43;;
24407;SDS011;12542;50.924;4.516;2023-07-02T08:32:19;13.93;;;6.55;;
24407;SDS011;12542;50.924;4.516;2023-07-02T08:34:45;17.02;;;6.70;;
24407;SDS011;12542;50.924;4.516;2023-07-02T08:37:11;15.82;;;6.22;;
24407;SDS011;12542;50.924;4.516;2023-07-02T08:39:37;13.00;;;5.88;;
24407;SDS011;12542;50.924;4.516;2023-07-02T08:42:04;15.02;;;6.38;;
24407;SDS011;12542;50.924;4.516;2023-07-02T08:44:30;17.25;;;7.43;;
24407;SDS011;12542;50.924;4.516;2023-07-02T08:46:56;17.23;;;7.60;;
24407;SDS011;12542;50.924;4.516;2023-07-02T08:49:25;18.88;;;7.57;;
24407;SDS011;12542;50.924;4.516;2023-07-02T08:51:51;14.65;;;7.55;;
24407;SDS011;12542;50.924;4.516;2023-07-02T08:54:19;19.70;;;8.40;;
24407;SDS011;12542;50.924;4.516;2023-07-02T08:56:45;16.23;;;7.03;;
24407;SDS011;12542;50.924;4.516;2023-07-02T08:59:12;18.95;;;8.77;;
24407;SDS011;12542;50.924;4.516;2023-07-02T09:01:46;20.70;;;8.38;;
24407;SDS011;12542;50.924;4.516;2023-07-02T09:04:20;21.75;;;8.93;;
24407;SDS011;12542;50.924;4.516;2023-07-02T09:06:48;21.67;;;8.98;;
24407;SDS011;12542;50.924;4.516;2023-07-02T09:09:14;21.20;;;7.93;;
24407;SDS011;12542;50.924;4.516;2023-07-02T09:11:47;21.02;;;8.45;;
24407;SDS011;12542;50.924;4.516;2023-07-02T09:14:23;24.25;;;9.23;;
24407;SDS011;12542;50.924;4.516;2023-07-02T09:17:07;22.50;;;9.48;;
24407;SDS011;12542;50.924;4.516;2023-07-02T09:19:34;19.75;;;8.50;;
24407;SDS011;12542;50.924;4.516;2023-07-02T09:22:00;16.52;;;8.23;;
24407;SDS011;12542;50.924;4.516;2023-07-02T09:24:27;23.40;;;9.88;;
24407;SDS011;12542;50.924;4.516;2023-07-02T09:26:57;18.60;;;8.70;;
24407;SDS011;12542;50.924;4.516;2023-07-02T09:31:53;20.70;;;8.43;;
24407;SDS011;12542;50.924;4.516;2023-07-02T09:34:41;25.42;;;9.43;;
24407;SDS011;12542;50.924;4.516;2023-07-02T09:37:07;22.48;;;9.65;;
24407;SDS011;12542;50.924;4.516;2023-07-02T09:39:33;20.48;;;9.43;;
24407;SDS011;12542;50.924;4.516;2023-07-02T09:42:01;25.45;;;9.23;;
24407;SDS011;12542;50.924;4.516;2023-07-02T09:44:35;24.33;;;10.73;;
24407;SDS011;12542;50.924;4.516;2023-07-02T09:52:09;23.98;;;10.82;;
24407;SDS011;12542;50.924;4.516;2023-07-02T09:54:38;25.48;;;10.25;;
24407;SDS011;12542;50.924;4.516;2023-07-02T09:57:04;20.10;;;9.57;;
24407;SDS011;12542;50.924;4.516;2023-07-02T09:59:32;24.70;;;9.77;;
24407;SDS011;12542;50.924;4.516;2023-07-02T10:01:57;26.13;;;10.38;;
24407;SDS011;12542;50.924;4.516;2023-07-02T10:04:24;21.50;;;8.93;;
24407;SDS011;12542;50.924;4.516;2023-07-02T10:06:53;23.45;;;10.07;;
24407;SDS011;12542;50.924;4.516;2023-07-02T10:09:20;21.52;;;9.82;;
24407;SDS011;12542;50.924;4.516;2023-07-02T10:12:23;24.10;;;10.02;;
24407;SDS011;12542;50.924;4.516;2023-07-02T10:14:50;22.98;;;9.30;;
24407;SDS011;12542;50.924;4.516;2023-07-02T10:17:24;23.98;;;10.48;;
24407;SDS011;12542;50.924;4.516;2023-07-02T10:19:58;21.48;;;10.10;;
24407;SDS011;12542;50.924;4.516;2023-07-02T10:22:25;21.42;;;9.95;;
24407;SDS011;12542;50.924;4.516;2023-07-02T10:24:55;22.90;;;9.23;;
24407;SDS011;12542;50.924;4.516;2023-07-02T10:27:37;21.85;;;9.75;;
24407;SDS011;12542;50.924;4.516;2023-07-02T10:30:05;22.13;;;10.23;;
24407;SDS011;12542;50.924;4.516;2023-07-02T10:32:32;20.20;;;9.57;;
24407;SDS011;12542;50.924;4.516;2023-07-02T10:34:59;26.55;;;9.80;;
24407;SDS011;12542;50.924;4.516;2023-07-02T10:37:38;19.20;;;8.95;;
24407;SDS011;12542;50.924;4.516;2023-07-02T10:42:31;20.42;;;9.35;;
24407;SDS011;12542;50.924;4.516;2023-07-02T10:44:59;21.25;;;8.57;;
24407;SDS011;12542;50.924;4.516;2023-07-02T10:47:25;16.58;;;8.80;;
24407;SDS011;12542;50.924;4.516;2023-07-02T10:49:54;24.95;;;9.77;;
24407;SDS011;12542;50.924;4.516;2023-07-02T10:52:20;20.98;;;9.93;;
24407;SDS011;12542;50.924;4.516;2023-07-02T10:54:46;22.85;;;9.18;;
24407;SDS011;12542;50.924;4.516;2023-07-02T10:57:18;23.15;;;9.30;;
24407;SDS011;12542;50.924;4.516;2023-07-02T10:59:47;21.23;;;9.85;;
24407;SDS011;12542;50.924;4.516;2023-07-02T11:02:13;17.58;;;8.55;;
24407;SDS011;12542;50.924;4.516;2023-07-02T11:04:40;24.60;;;9.10;;
24407;SDS011;12542;50.924;4.516;2023-07-02T11:07:06;21.20;;;8.93;;
24407;SDS011;12542;50.924;4.516;2023-07-02T11:09:31;22.33;;;8.45;;
24407;SDS011;12542;50.924;4.516;2023-07-02T11:11:58;26.15;;;9.77;;
24407;SDS011;12542;50.924;4.516;2023-07-02T11:17:04;20.75;;;9.05;;
24407;SDS011;12542;50.924;4.516;2023-07-02T11:19:33;23.88;;;9.60;;
24407;SDS011;12542;50.924;4.516;2023-07-02T11:22:00;18.25;;;8.30;;
24407;SDS011;12542;50.924;4.516;2023-07-02T11:24:31;19.30;;;8.60;;
24407;SDS011;12542;50.924;4.516;2023-07-02T11:27:02;16.00;;;8.25;;
24407;SDS011;12542;50.924;4.516;2023-07-02T11:29:30;18.75;;;8.23;;
24407;SDS011;12542;50.924;4.516;2023-07-02T11:32:09;22.83;;;8.85;;
24407;SDS011;12542;50.924;4.516;2023-07-02T11:34:36;21.77;;;9.05;;
24407;SDS011;12542;50.924;4.516;2023-07-02T11:37:02;21.27;;;8.45;;
24407;SDS011;12542;50.924;4.516;2023-07-02T11:39:31;24.92;;;9.10;;
24407;SDS011;12542;50.924;4.516;2023-07-02T11:41:57;24.33;;;9.38;;
24407;SDS011;12542;50.924;4.516;2023-07-02T11:44:23;24.02;;;9.25;;
24407;SDS011;12542;50.924;4.516;2023-07-02T11:46:49;20.45;;;9.25;;
24407;SDS011;12542;50.924;4.516;2023-07-02T11:49:15;23.85;;;9.57;;
24407;SDS011;12542;50.924;4.516;2023-07-02T11:51:43;21.75;;;9.25;;
24407;SDS011;12542;50.924;4.516;2023-07-02T11:54:13;16.60;;;8.68;;
24407;SDS011;12542;50.924;4.516;2023-07-02T11:56:39;23.38;;;9.32;;
24407;SDS011;12542;50.924;4.516;2023-07-02T11:59:07;19.08;;;8.35;;
24407;SDS011;12542;50.924;4.516;2023-07-02T12:01:33;18.13;;;8.50;;
24407;SDS011;12542;50.924;4.516;2023-07-02T12:03:59;19.48;;;8.93;;
24407;SDS011;12542;50.924;4.516;2023-07-02T12:06:25;20.80;;;8.98;;
24407;SDS011;12542;50.924;4.516;2023-07-02T12:08:50;18.80;;;8.73;;
24407;SDS011;12542;50.924;4.516;2023-07-02T12:11:16;21.85;;;9.00;;
24407;SDS011;12542;50.924;4.516;2023-07-02T12:13:42;18.90;;;8.75;;
24407;SDS011;12542;50.924;4.516;2023-07-02T12:16:11;24.98;;;9.13;;
24407;SDS011;12542;50.924;4.516;2023-07-02T12:18:36;21.20;;;9.38;;
24407;SDS011;12542;50.924;4.516;2023-07-02T12:21:02;22.67;;;9.75;;
24407;SDS011;12542;50.924;4.516;2023-07-02T12:23:28;18.63;;;9.18;;
24407;SDS011;12542;50.924;4.516;2023-07-02T12:25:53;16.58;;;8.38;;
24407;SDS011;12542;50.924;4.516;2023-07-02T12:28:19;20.45;;;9.27;;
24407;SDS011;12542;50.924;4.516;2023-07-02T12:30:45;18.02;;;8.27;;
24407;SDS011;12542;50.924;4.516;2023-07-02T12:33:10;18.15;;;8.73;;
24407;SDS011;12542;50.924;4.516;2023-07-02T12:35:36;19.73;;;10.18;;
24407;SDS011;12542;50.924;4.516;2023-07-02T12:38:02;18.83;;;8.52;;
24407;SDS011;12542;50.924;4.516;2023-07-02T12:40:33;19.13;;;8.60;;
24407;SDS011;12542;50.924;4.516;2023-07-02T12:42:59;17.10;;;8.32;;
24407;SDS011;12542;50.924;4.516;2023-07-02T12:45:24;23.63;;;10.95;;
24407;SDS011;12542;50.924;4.516;2023-07-02T12:47:50;20.98;;;8.98;;
24407;SDS011;12542;50.924;4.516;2023-07-02T12:50:16;21.40;;;10.68;;
24407;SDS011;12542;50.924;4.516;2023-07-02T12:52:44;18.02;;;8.82;;
24407;SDS011;12542;50.924;4.516;2023-07-02T12:55:12;23.35;;;8.88;;
24407;SDS011;12542;50.924;4.516;2023-07-02T12:57:38;20.75;;;7.97;;
24407;SDS011;12542;50.924;4.516;2023-07-02T13:00:04;21.73;;;9.05;;
24407;SDS011;12542;50.924;4.516;2023-07-02T13:02:33;20.33;;;8.10;;
24407;SDS011;12542;50.924;4.516;2023-07-02T13:04:59;19.23;;;7.47;;
24407;SDS011;12542;50.924;4.516;2023-07-02T13:07:25;19.33;;;8.27;;
24407;SDS011;12542;50.924;4.516;2023-07-02T13:09:51;18.10;;;8.10;;
24407;SDS011;12542;50.924;4.516;2023-07-02T13:12:16;22.25;;;10.20;;
24407;SDS011;12542;50.924;4.516;2023-07-02T13:14:43;19.20;;;8.20;;
24407;SDS011;12542;50.924;4.516;2023-07-02T13:17:13;24.27;;;12.55;;
24407;SDS011;12542;50.924;4.516;2023-07-02T13:19:38;26.23;;;11.82;;
24407;SDS011;12542;50.924;4.516;2023-07-02T13:22:04;63.58;;;37.75;;
24407;SDS011;12542;50.924;4.516;2023-07-02T13:24:33;17.48;;;8.85;;
24407;SDS011;12542;50.924;4.516;2023-07-02T13:27:02;16.70;;;8.13;;
24407;SDS011;12542;50.924;4.516;2023-07-02T13:29:31;18.65;;;9.35;;
24407;SDS011;12542;50.924;4.516;2023-07-02T13:31:57;14.98;;;7.75;;
24407;SDS011;12542;50.924;4.516;2023-07-02T13:34:23;20.08;;;7.57;;
24407;SDS011;12542;50.924;4.516;2023-07-02T13:36:48;14.75;;;6.82;;
24407;SDS011;12542;50.924;4.516;2023-07-02T13:39:14;17.40;;;7.10;;
24407;SDS011;12542;50.924;4.516;2023-07-02T13:41:40;12.90;;;6.25;;
24407;SDS011;12542;50.924;4.516;2023-07-02T13:44:05;16.92;;;7.68;;
24407;SDS011;12542;50.924;4.516;2023-07-02T13:46:31;16.67;;;6.68;;
24407;SDS011;12542;50.924;4.516;2023-07-02T13:48:57;18.98;;;6.55;;
24407;SDS011;12542;50.924;4.516;2023-07-02T13:51:22;14.52;;;6.97;;
24407;SDS011;12542;50.924;4.516;2023-07-02T13:53:50;16.13;;;7.03;;
24407;SDS011;12542;50.924;4.516;2023-07-02T13:56:16;18.23;;;6.93;;
24407;SDS011;12542;50.924;4.516;2023-07-02T14:01:12;14.18;;;6.20;;
24407;SDS011;12542;50.924;4.516;2023-07-02T14:03:38;15.55;;;6.85;;
24407;SDS011;12542;50.924;4.516;2023-07-02T14:06:04;15.88;;;6.93;;
24407;SDS011;12542;50.924;4.516;2023-07-02T14:08:29;19.45;;;7.10;;
24407;SDS011;12542;50.924;4.516;2023-07-02T14:10:55;17.08;;;6.63;;
24407;SDS011;12542;50.924;4.516;2023-07-02T14:13:20;15.98;;;6.78;;
24407;SDS011;12542;50.924;4.516;2023-07-02T14:15:46;16.63;;;7.18;;
24407;SDS011;12542;50.924;4.516;2023-07-02T14:18:12;19.13;;;6.88;;
24407;SDS011;12542;50.924;4.516;2023-07-02T14:20:37;17.20;;;6.45;;
24407;SDS011;12542;50.924;4.516;2023-07-02T14:23:03;15.68;;;6.75;;
24407;SDS011;12542;50.924;4.516;2023-07-02T14:25:29;15.13;;;6.38;;
24407;SDS011;12542;50.924;4.516;2023-07-02T14:27:54;18.27;;;7.15;;
24407;SDS011;12542;50.924;4.516;2023-07-02T14:30:22;17.15;;;6.43;;
24407;SDS011;12542;50.924;4.516;2023-07-02T14:32:48;14.15;;;6.65;;
24407;SDS011;12542;50.924;4.516;2023-07-02T14:35:14;17.17;;;6.55;;
24407;SDS011;12542;50.924;4.516;2023-07-02T14:37:39;16.73;;;7.63;;
24407;SDS011;12542;50.924;4.516;2023-07-02T14:40:05;16.30;;;6.82;;
24407;SDS011;12542;50.924;4.516;2023-07-02T14:42:31;16.38;;;7.30;;